Los Alamitos Army Air Field
KSLI : now visible

Airfield :











YOU CAN JOIN US ON...

 
LOGIN :

Register | Disclaimer

   EN    FR    IT 

 









Legend :    VFR   Marginal VFR   IFR   Intensive IFR   Very Intensive IFR
Visi :
Ceiling :
>= 8 km
>= 3000ft
5 to 8 km
1000 to 3000 ft
1500m to 5 km
500 to 1000 ft
800 to 1500m
200 to 500 ft
< 800m
< 200 ft
Symbols :   Thunderstorms  Fog  Heavy snow  Heavy precipitations  Wind > 20 kt






- Airport Elevation : 32 ft


KSLI - Los Alamitos Army Air Field

CURRENT METAR :
  • 172158Z AUTO 20008KT 10SM CLR 18/12 A2990 RMK AO2 SLP128 T01800124

EXPIRED METARs :
  • 172058Z AUTO 21005KT 10SM CLR 18/12 A2992 RMK AO2 SLP135 T01770117 57022
  • 171958Z AUTO 19005KT 10SM CLR 18/12 A2994 RMK AO2 SLP142 T01800115

TAF TAF KSLI
Valid from the 17 at 21:00 until the 19 at 03:00 UTC


172100Z 1721/1903 27009KT 9999 FEW250 QNH2986INS
BECMG 1802/1803 VRB06KT 9999 FEW250 QNH2987INS
BECMG 1808/1809 VRB06KT 9999 SCT011 QNH2991INS
TEMPO 1809/1812 6000 BR BKN010
BECMG 1812/1813 VRB06KT 4800 BR BKN015 QNH2992INS
TEMPO 1813/1817 1600 BR BKN007
BECMG 1818/1819 VRB06KT 9999 NSW SKC QNH2991INS TX19/1723Z TN10/1813Z



MET'MAP, your aeronautical weather chart ! - Copyright ORBIFLY December 2007 - Disclaimer

ORBIFLY MET'MAP TEAM :

Programming & Development : Alexandra Zaïnal
Concept & original design : Baudouin d'Aumeries
Assistance for programming : Marc-Olivier Méhu
Technical & hardware support : Manuel Goepfert

Contact : metmap@orbifly.com




SOURCES & CREDITS :

   NOAA       Earth
Advisory